Addicks Barker, Texas
Current Conditions -  °F | °C
As of 9:53 AM on Sunday 25 Jan 2015 (Local Time) from KSGR Reporting Station
Clear Clear  
Wind Chill: 57°   Ceiling: Unl
Heat Index: 57°   Visibility: 10mi
Dew Point: 41°   Wind: 8mph
Humidity: 55%   Direction: 230°SW
Pressure: 30.04"   Gusts: NA
Location:  29.8301°N, 95.6661°W
Report Text: KSGR 251553Z AUTO 23007KT 10SM CLR 14/05 A3004 RMK AO2 SLP174 T01390050
Loading
Personal Weather Stations






























Interactive Weather Map New forecast layout! Learn more

10-Day Weather Forecast

Advertisements
Track Severe Weather on mobile